sensor_id;sensor_type;location;lat;lon;timestamp;pressure;altitude;pressure_sealevel;temperature
12918;BMP180;6526;54.312;13.092;2022-11-21T00:00:48;100709.00;;;4.60
12918;BMP180;6526;54.312;13.092;2022-11-21T00:03:14;100707.00;;;4.60
12918;BMP180;6526;54.312;13.092;2022-11-21T00:05:43;100708.00;;;4.50
12918;BMP180;6526;54.312;13.092;2022-11-21T00:08:11;100711.00;;;4.50
12918;BMP180;6526;54.312;13.092;2022-11-21T00:10:38;100709.00;;;4.50
12918;BMP180;6526;54.312;13.092;2022-11-21T00:13:05;100707.00;;;4.40
12918;BMP180;6526;54.312;13.092;2022-11-21T00:15:32;100703.00;;;4.40
12918;BMP180;6526;54.312;13.092;2022-11-21T00:18:02;100695.00;;;4.40
12918;BMP180;6526;54.312;13.092;2022-11-21T00:20:28;100698.00;;;4.30
12918;BMP180;6526;54.312;13.092;2022-11-21T00:22:54;100683.00;;;4.30
12918;BMP180;6526;54.312;13.092;2022-11-21T00:25:20;100698.00;;;4.30
12918;BMP180;6526;54.312;13.092;2022-11-21T00:27:46;100696.00;;;4.30
12918;BMP180;6526;54.312;13.092;2022-11-21T00:30:13;100693.00;;;4.20
12918;BMP180;6526;54.312;13.092;2022-11-21T00:32:39;100691.00;;;4.20
12918;BMP180;6526;54.312;13.092;2022-11-21T00:35:06;100683.00;;;4.10
12918;BMP180;6526;54.312;13.092;2022-11-21T00:37:33;100685.00;;;4.20
12918;BMP180;6526;54.312;13.092;2022-11-21T00:39:59;100671.00;;;4.10
12918;BMP180;6526;54.312;13.092;2022-11-21T00:42:25;100680.00;;;4.10
12918;BMP180;6526;54.312;13.092;2022-11-21T00:44:51;100670.00;;;4.10
12918;BMP180;6526;54.312;13.092;2022-11-21T00:47:17;100679.00;;;4.10
12918;BMP180;6526;54.312;13.092;2022-11-21T00:49:43;100679.00;;;4.00
12918;BMP180;6526;54.312;13.092;2022-11-21T00:52:09;100648.00;;;4.00
12918;BMP180;6526;54.312;13.092;2022-11-21T00:54:35;100677.00;;;4.00
12918;BMP180;6526;54.312;13.092;2022-11-21T00:57:01;100681.00;;;4.00
12918;BMP180;6526;54.312;13.092;2022-11-21T00:59:27;100673.00;;;3.90
12918;BMP180;6526;54.312;13.092;2022-11-21T01:01:53;100681.00;;;3.80
12918;BMP180;6526;54.312;13.092;2022-11-21T01:04:19;100681.00;;;3.80
12918;BMP180;6526;54.312;13.092;2022-11-21T01:06:45;100671.00;;;3.70
12918;BMP180;6526;54.312;13.092;2022-11-21T01:09:11;100670.00;;;3.50
12918;BMP180;6526;54.312;13.092;2022-11-21T01:11:37;100668.00;;;3.40
12918;BMP180;6526;54.312;13.092;2022-11-21T01:14:04;100656.00;;;3.30
12918;BMP180;6526;54.312;13.092;2022-11-21T01:16:30;100668.00;;;3.20
12918;BMP180;6526;54.312;13.092;2022-11-21T01:18:57;100671.00;;;3.20
12918;BMP180;6526;54.312;13.092;2022-11-21T01:21:25;100671.00;;;3.30
12918;BMP180;6526;54.312;13.092;2022-11-21T01:23:52;100664.00;;;3.30
12918;BMP180;6526;54.312;13.092;2022-11-21T01:26:21;100668.00;;;3.40
12918;BMP180;6526;54.312;13.092;2022-11-21T01:28:48;100652.00;;;3.30
12918;BMP180;6526;54.312;13.092;2022-11-21T01:31:16;100650.00;;;3.30
12918;BMP180;6526;54.312;13.092;2022-11-21T01:33:43;100648.00;;;3.30
12918;BMP180;6526;54.312;13.092;2022-11-21T01:36:17;100650.00;;;3.50
12918;BMP180;6526;54.312;13.092;2022-11-21T01:38:46;100654.00;;;3.40
12918;BMP180;6526;54.312;13.092;2022-11-21T01:41:19;100651.00;;;3.40
12918;BMP180;6526;54.312;13.092;2022-11-21T01:43:45;100647.00;;;3.30
12918;BMP180;6526;54.312;13.092;2022-11-21T01:46:22;100650.00;;;3.40
12918;BMP180;6526;54.312;13.092;2022-11-21T01:49:02;100655.00;;;3.40
12918;BMP180;6526;54.312;13.092;2022-11-21T01:51:49;100649.00;;;3.30
12918;BMP180;6526;54.312;13.092;2022-11-21T01:54:35;100644.00;;;3.30
12918;BMP180;6526;54.312;13.092;2022-11-21T02:02:16;100643.00;;;3.30
12918;BMP180;6526;54.312;13.092;2022-11-21T02:04:43;100629.00;;;3.20
12918;BMP180;6526;54.312;13.092;2022-11-21T02:07:10;100636.00;;;3.30
12918;BMP180;6526;54.312;13.092;2022-11-21T02:09:41;100627.00;;;3.30
12918;BMP180;6526;54.312;13.092;2022-11-21T02:12:20;100643.00;;;3.20
12918;BMP180;6526;54.312;13.092;2022-11-21T02:14:47;100623.00;;;3.30
12918;BMP180;6526;54.312;13.092;2022-11-21T02:17:17;100637.00;;;3.30
12918;BMP180;6526;54.312;13.092;2022-11-21T02:20:00;100638.00;;;3.40
12918;BMP180;6526;54.312;13.092;2022-11-21T02:22:33;100636.00;;;3.30
12918;BMP180;6526;54.312;13.092;2022-11-21T02:25:05;100645.00;;;3.30
12918;BMP180;6526;54.312;13.092;2022-11-21T02:27:32;100637.00;;;3.30
12918;BMP180;6526;54.312;13.092;2022-11-21T02:29:58;100642.00;;;3.40
12918;BMP180;6526;54.312;13.092;2022-11-21T02:32:34;100641.00;;;3.40
12918;BMP180;6526;54.312;13.092;2022-11-21T02:35:00;100635.00;;;3.50
12918;BMP180;6526;54.312;13.092;2022-11-21T02:37:26;100643.00;;;3.40
12918;BMP180;6526;54.312;13.092;2022-11-21T02:39:54;100645.00;;;3.50
12918;BMP180;6526;54.312;13.092;2022-11-21T02:42:26;100643.00;;;3.50
12918;BMP180;6526;54.312;13.092;2022-11-21T02:45:13;100643.00;;;3.50
12918;BMP180;6526;54.312;13.092;2022-11-21T02:47:41;100643.00;;;3.40
12918;BMP180;6526;54.312;13.092;2022-11-21T02:50:14;100650.00;;;3.40
12918;BMP180;6526;54.312;13.092;2022-11-21T02:52:41;100647.00;;;3.50
12918;BMP180;6526;54.312;13.092;2022-11-21T02:55:07;100646.00;;;3.40
12918;BMP180;6526;54.312;13.092;2022-11-21T02:57:34;100641.00;;;3.40
12918;BMP180;6526;54.312;13.092;2022-11-21T03:00:00;100629.00;;;3.40
12918;BMP180;6526;54.312;13.092;2022-11-21T03:02:26;100635.00;;;3.30
12918;BMP180;6526;54.312;13.092;2022-11-21T03:04:52;100630.00;;;3.50
12918;BMP180;6526;54.312;13.092;2022-11-21T03:07:18;100628.00;;;3.30
12918;BMP180;6526;54.312;13.092;2022-11-21T03:09:44;100616.00;;;3.30
12918;BMP180;6526;54.312;13.092;2022-11-21T03:12:10;100622.00;;;3.30
12918;BMP180;6526;54.312;13.092;2022-11-21T03:14:36;100630.00;;;3.30
12918;BMP180;6526;54.312;13.092;2022-11-21T03:17:03;100626.00;;;3.20
12918;BMP180;6526;54.312;13.092;2022-11-21T03:19:29;100623.00;;;3.20
12918;BMP180;6526;54.312;13.092;2022-11-21T03:21:55;100618.00;;;3.30
12918;BMP180;6526;54.312;13.092;2022-11-21T03:24:22;100635.00;;;3.30
12918;BMP180;6526;54.312;13.092;2022-11-21T03:26:48;100629.00;;;3.30
12918;BMP180;6526;54.312;13.092;2022-11-21T03:29:14;100634.00;;;3.20
12918;BMP180;6526;54.312;13.092;2022-11-21T03:31:40;100632.00;;;3.30
12918;BMP180;6526;54.312;13.092;2022-11-21T03:34:06;100617.00;;;3.30
12918;BMP180;6526;54.312;13.092;2022-11-21T03:36:32;100617.00;;;3.10
12918;BMP180;6526;54.312;13.092;2022-11-21T03:38:58;100635.00;;;3.20
12918;BMP180;6526;54.312;13.092;2022-11-21T03:41:25;100633.00;;;3.20
12918;BMP180;6526;54.312;13.092;2022-11-21T03:44:08;100633.00;;;3.20
12918;BMP180;6526;54.312;13.092;2022-11-21T03:46:45;100632.00;;;3.30
12918;BMP180;6526;54.312;13.092;2022-11-21T03:49:12;100632.00;;;3.20
12918;BMP180;6526;54.312;13.092;2022-11-21T03:51:40;100638.00;;;3.20
12918;BMP180;6526;54.312;13.092;2022-11-21T03:54:06;100627.00;;;3.20
12918;BMP180;6526;54.312;13.092;2022-11-21T03:56:33;100627.00;;;3.20
12918;BMP180;6526;54.312;13.092;2022-11-21T03:58:59;100626.00;;;3.10
12918;BMP180;6526;54.312;13.092;2022-11-21T04:01:25;100629.00;;;3.20
12918;BMP180;6526;54.312;13.092;2022-11-21T04:03:52;100629.00;;;3.20
12918;BMP180;6526;54.312;13.092;2022-11-21T04:06:20;100629.00;;;3.10
12918;BMP180;6526;54.312;13.092;2022-11-21T04:08:47;100623.00;;;3.00
12918;BMP180;6526;54.312;13.092;2022-11-21T04:11:14;100630.00;;;3.10
12918;BMP180;6526;54.312;13.092;2022-11-21T04:13:40;100626.00;;;3.10
12918;BMP180;6526;54.312;13.092;2022-11-21T04:16:07;100627.00;;;3.10
12918;BMP180;6526;54.312;13.092;2022-11-21T04:18:33;100626.00;;;2.90
12918;BMP180;6526;54.312;13.092;2022-11-21T04:21:02;100628.00;;;3.10
12918;BMP180;6526;54.312;13.092;2022-11-21T04:23:29;100624.00;;;3.10
12918;BMP180;6526;54.312;13.092;2022-11-21T04:25:55;100636.00;;;3.10
12918;BMP180;6526;54.312;13.092;2022-11-21T04:28:22;100625.00;;;3.10
12918;BMP180;6526;54.312;13.092;2022-11-21T04:30:48;100619.00;;;3.10
12918;BMP180;6526;54.312;13.092;2022-11-21T04:33:15;100617.00;;;3.00
12918;BMP180;6526;54.312;13.092;2022-11-21T04:35:42;100623.00;;;3.00
12918;BMP180;6526;54.312;13.092;2022-11-21T04:38:09;100621.00;;;3.10
12918;BMP180;6526;54.312;13.092;2022-11-21T04:40:36;100625.00;;;3.10
12918;BMP180;6526;54.312;13.092;2022-11-21T04:43:02;100622.00;;;3.10
12918;BMP180;6526;54.312;13.092;2022-11-21T04:45:28;100612.00;;;3.20
12918;BMP180;6526;54.312;13.092;2022-11-21T04:47:54;100630.00;;;3.20
12918;BMP180;6526;54.312;13.092;2022-11-21T04:50:21;100609.00;;;3.20
12918;BMP180;6526;54.312;13.092;2022-11-21T04:52:51;100614.00;;;3.20
12918;BMP180;6526;54.312;13.092;2022-11-21T04:55:18;100612.00;;;3.10
12918;BMP180;6526;54.312;13.092;2022-11-21T04:57:44;100608.00;;;3.00
12918;BMP180;6526;54.312;13.092;2022-11-21T05:00:12;100608.00;;;3.10
12918;BMP180;6526;54.312;13.092;2022-11-21T05:02:38;100618.00;;;2.80
12918;BMP180;6526;54.312;13.092;2022-11-21T05:05:04;100612.00;;;2.90
12918;BMP180;6526;54.312;13.092;2022-11-21T05:07:31;100615.00;;;2.90
12918;BMP180;6526;54.312;13.092;2022-11-21T05:09:57;100612.00;;;2.90
12918;BMP180;6526;54.312;13.092;2022-11-21T05:12:23;100612.00;;;2.80
12918;BMP180;6526;54.312;13.092;2022-11-21T05:15:08;100614.00;;;2.80
12918;BMP180;6526;54.312;13.092;2022-11-21T05:17:34;100620.00;;;2.70
12918;BMP180;6526;54.312;13.092;2022-11-21T05:20:00;100616.00;;;2.80
12918;BMP180;6526;54.312;13.092;2022-11-21T05:22:26;100611.00;;;2.90
12918;BMP180;6526;54.312;13.092;2022-11-21T05:24:52;100618.00;;;2.90
12918;BMP180;6526;54.312;13.092;2022-11-21T05:27:18;100621.00;;;2.80
12918;BMP180;6526;54.312;13.092;2022-11-21T05:29:45;100625.00;;;2.90
12918;BMP180;6526;54.312;13.092;2022-11-21T05:32:11;100633.00;;;2.90
12918;BMP180;6526;54.312;13.092;2022-11-21T05:34:37;100628.00;;;3.00
12918;BMP180;6526;54.312;13.092;2022-11-21T05:37:03;100637.00;;;2.90
12918;BMP180;6526;54.312;13.092;2022-11-21T05:39:30;100629.00;;;2.90
12918;BMP180;6526;54.312;13.092;2022-11-21T05:41:56;100627.00;;;2.70
12918;BMP180;6526;54.312;13.092;2022-11-21T05:44:22;100628.00;;;2.80
12918;BMP180;6526;54.312;13.092;2022-11-21T05:46:48;100618.00;;;2.70
12918;BMP180;6526;54.312;13.092;2022-11-21T05:49:14;100622.00;;;2.80
12918;BMP180;6526;54.312;13.092;2022-11-21T05:51:40;100618.00;;;2.90
12918;BMP180;6526;54.312;13.092;2022-11-21T05:54:06;100614.00;;;2.80
12918;BMP180;6526;54.312;13.092;2022-11-21T05:56:32;100620.00;;;2.80
12918;BMP180;6526;54.312;13.092;2022-11-21T05:58:58;100611.00;;;2.90
12918;BMP180;6526;54.312;13.092;2022-11-21T06:01:25;100606.00;;;2.80
12918;BMP180;6526;54.312;13.092;2022-11-21T06:04:10;100604.00;;;2.80
12918;BMP180;6526;54.312;13.092;2022-11-21T06:06:36;100616.00;;;2.80
12918;BMP180;6526;54.312;13.092;2022-11-21T06:09:03;100612.00;;;2.70
12918;BMP180;6526;54.312;13.092;2022-11-21T06:11:29;100608.00;;;2.70
12918;BMP180;6526;54.312;13.092;2022-11-21T06:13:55;100618.00;;;2.70
12918;BMP180;6526;54.312;13.092;2022-11-21T06:16:22;100618.00;;;2.80
12918;BMP180;6526;54.312;13.092;2022-11-21T06:18:50;100622.00;;;2.60
12918;BMP180;6526;54.312;13.092;2022-11-21T06:21:18;100612.00;;;2.70
12918;BMP180;6526;54.312;13.092;2022-11-21T06:23:45;100612.00;;;2.70
12918;BMP180;6526;54.312;13.092;2022-11-21T06:26:14;100610.00;;;2.70
12918;BMP180;6526;54.312;13.092;2022-11-21T06:28:41;100612.00;;;2.60
12918;BMP180;6526;54.312;13.092;2022-11-21T06:31:15;100617.00;;;2.60
12918;BMP180;6526;54.312;13.092;2022-11-21T06:33:42;100612.00;;;2.70
12918;BMP180;6526;54.312;13.092;2022-11-21T06:36:13;100622.00;;;2.80
12918;BMP180;6526;54.312;13.092;2022-11-21T06:38:40;100611.00;;;2.70
12918;BMP180;6526;54.312;13.092;2022-11-21T06:41:25;100614.00;;;2.80
12918;BMP180;6526;54.312;13.092;2022-11-21T06:43:57;100612.00;;;2.80
12918;BMP180;6526;54.312;13.092;2022-11-21T06:46:23;100608.00;;;2.80
12918;BMP180;6526;54.312;13.092;2022-11-21T06:48:49;100625.00;;;2.80
12918;BMP180;6526;54.312;13.092;2022-11-21T06:51:17;100612.00;;;2.70
12918;BMP180;6526;54.312;13.092;2022-11-21T06:53:44;100614.00;;;2.60
12918;BMP180;6526;54.312;13.092;2022-11-21T06:56:10;100610.00;;;2.60
12918;BMP180;6526;54.312;13.092;2022-11-21T06:58:36;100615.00;;;2.50
12918;BMP180;6526;54.312;13.092;2022-11-21T07:01:04;100620.00;;;2.50
12918;BMP180;6526;54.312;13.092;2022-11-21T07:03:31;100618.00;;;2.50
12918;BMP180;6526;54.312;13.092;2022-11-21T07:05:59;100609.00;;;2.60
12918;BMP180;6526;54.312;13.092;2022-11-21T07:08:26;100620.00;;;2.60
12918;BMP180;6526;54.312;13.092;2022-11-21T07:10:53;100619.00;;;2.60
12918;BMP180;6526;54.312;13.092;2022-11-21T07:13:19;100626.00;;;2.50
12918;BMP180;6526;54.312;13.092;2022-11-21T07:15:51;100624.00;;;2.50
12918;BMP180;6526;54.312;13.092;2022-11-21T07:18:17;100627.00;;;2.40
12918;BMP180;6526;54.312;13.092;2022-11-21T07:20:44;100640.00;;;2.40
12918;BMP180;6526;54.312;13.092;2022-11-21T07:23:10;100637.00;;;2.50
12918;BMP180;6526;54.312;13.092;2022-11-21T07:25:36;100642.00;;;2.50
12918;BMP180;6526;54.312;13.092;2022-11-21T07:28:04;100620.00;;;2.60
12918;BMP180;6526;54.312;13.092;2022-11-21T07:30:31;100627.00;;;2.60
12918;BMP180;6526;54.312;13.092;2022-11-21T07:33:02;100627.00;;;2.60
12918;BMP180;6526;54.312;13.092;2022-11-21T07:35:29;100626.00;;;2.50
12918;BMP180;6526;54.312;13.092;2022-11-21T07:37:55;100631.00;;;2.50
12918;BMP180;6526;54.312;13.092;2022-11-21T07:40:21;100625.00;;;2.50
12918;BMP180;6526;54.312;13.092;2022-11-21T07:42:47;100641.00;;;2.40
12918;BMP180;6526;54.312;13.092;2022-11-21T07:45:14;100640.00;;;2.40
12918;BMP180;6526;54.312;13.092;2022-11-21T07:47:40;100629.00;;;2.50
12918;BMP180;6526;54.312;13.092;2022-11-21T07:50:07;100640.00;;;2.60
12918;BMP180;6526;54.312;13.092;2022-11-21T07:52:34;100634.00;;;2.60
12918;BMP180;6526;54.312;13.092;2022-11-21T07:55:00;100633.00;;;2.60
12918;BMP180;6526;54.312;13.092;2022-11-21T07:57:30;100634.00;;;2.80
12918;BMP180;6526;54.312;13.092;2022-11-21T07:59:57;100626.00;;;2.90
12918;BMP180;6526;54.312;13.092;2022-11-21T08:02:28;100632.00;;;3.00
12918;BMP180;6526;54.312;13.092;2022-11-21T08:04:54;100637.00;;;3.00
12918;BMP180;6526;54.312;13.092;2022-11-21T08:07:22;100644.00;;;3.10
12918;BMP180;6526;54.312;13.092;2022-11-21T08:09:48;100637.00;;;3.10
12918;BMP180;6526;54.312;13.092;2022-11-21T08:12:15;100632.00;;;3.10
12918;BMP180;6526;54.312;13.092;2022-11-21T08:14:41;100638.00;;;3.20
12918;BMP180;6526;54.312;13.092;2022-11-21T08:17:07;100642.00;;;3.40
12918;BMP180;6526;54.312;13.092;2022-11-21T08:19:34;100649.00;;;3.60
12918;BMP180;6526;54.312;13.092;2022-11-21T08:22:00;100645.00;;;3.60
12918;BMP180;6526;54.312;13.092;2022-11-21T08:24:26;100648.00;;;3.60
12918;BMP180;6526;54.312;13.092;2022-11-21T08:26:52;100643.00;;;3.70
12918;BMP180;6526;54.312;13.092;2022-11-21T08:29:18;100645.00;;;3.60
12918;BMP180;6526;54.312;13.092;2022-11-21T08:31:44;100647.00;;;3.60
12918;BMP180;6526;54.312;13.092;2022-11-21T08:34:11;100638.00;;;3.50
12918;BMP180;6526;54.312;13.092;2022-11-21T08:36:38;100633.00;;;3.50
12918;BMP180;6526;54.312;13.092;2022-11-21T08:39:04;100631.00;;;3.60
12918;BMP180;6526;54.312;13.092;2022-11-21T08:41:30;100642.00;;;3.50
12918;BMP180;6526;54.312;13.092;2022-11-21T08:44:14;100647.00;;;3.50
12918;BMP180;6526;54.312;13.092;2022-11-21T08:46:40;100643.00;;;3.50
12918;BMP180;6526;54.312;13.092;2022-11-21T08:49:07;100651.00;;;3.60
12918;BMP180;6526;54.312;13.092;2022-11-21T08:51:34;100646.00;;;3.50
12918;BMP180;6526;54.312;13.092;2022-11-21T08:54:00;100652.00;;;3.70
12918;BMP180;6526;54.312;13.092;2022-11-21T08:56:27;100658.00;;;3.60
12918;BMP180;6526;54.312;13.092;2022-11-21T08:58:53;100654.00;;;3.60
12918;BMP180;6526;54.312;13.092;2022-11-21T09:01:19;100664.00;;;3.60
12918;BMP180;6526;54.312;13.092;2022-11-21T09:03:45;100655.00;;;3.60
12918;BMP180;6526;54.312;13.092;2022-11-21T09:06:11;100652.00;;;3.70
12918;BMP180;6526;54.312;13.092;2022-11-21T09:08:38;100664.00;;;3.80
12918;BMP180;6526;54.312;13.092;2022-11-21T09:11:08;100660.00;;;3.90
12918;BMP180;6526;54.312;13.092;2022-11-21T09:13:35;100655.00;;;3.80
12918;BMP180;6526;54.312;13.092;2022-11-21T09:16:02;100671.00;;;3.80
12918;BMP180;6526;54.312;13.092;2022-11-21T09:18:50;100666.00;;;3.80
12918;BMP180;6526;54.312;13.092;2022-11-21T09:21:17;100670.00;;;3.80
12918;BMP180;6526;54.312;13.092;2022-11-21T09:23:43;100666.00;;;3.70
12918;BMP180;6526;54.312;13.092;2022-11-21T09:26:10;100669.00;;;3.80
12918;BMP180;6526;54.312;13.092;2022-11-21T09:28:36;100680.00;;;3.80
12918;BMP180;6526;54.312;13.092;2022-11-21T09:31:04;100678.00;;;3.90
12918;BMP180;6526;54.312;13.092;2022-11-21T09:33:30;100669.00;;;4.00
12918;BMP180;6526;54.312;13.092;2022-11-21T09:36:00;100667.00;;;4.10
12918;BMP180;6526;54.312;13.092;2022-11-21T09:38:26;100660.00;;;4.00
12918;BMP180;6526;54.312;13.092;2022-11-21T09:41:09;100657.00;;;4.20
12918;BMP180;6526;54.312;13.092;2022-11-21T09:46:48;100660.00;;;4.20
12918;BMP180;6526;54.312;13.092;2022-11-21T09:49:15;100659.00;;;4.40
12918;BMP180;6526;54.312;13.092;2022-11-21T09:51:43;100654.00;;;4.70
12918;BMP180;6526;54.312;13.092;2022-11-21T09:54:26;100649.00;;;4.60
12918;BMP180;6526;54.312;13.092;2022-11-21T09:56:54;100650.00;;;4.70
12918;BMP180;6526;54.312;13.092;2022-11-21T09:59:35;100651.00;;;4.80
12918;BMP180;6526;54.312;13.092;2022-11-21T10:02:13;100661.00;;;4.80
12918;BMP180;6526;54.312;13.092;2022-11-21T10:04:40;100660.00;;;4.90
12918;BMP180;6526;54.312;13.092;2022-11-21T10:07:12;100656.00;;;4.90
12918;BMP180;6526;54.312;13.092;2022-11-21T10:13:04;100659.00;;;5.00
12918;BMP180;6526;54.312;13.092;2022-11-21T10:21:30;100655.00;;;5.20
12918;BMP180;6526;54.312;13.092;2022-11-21T10:24:19;100651.00;;;5.20
12918;BMP180;6526;54.312;13.092;2022-11-21T10:27:02;100639.00;;;5.10
12918;BMP180;6526;54.312;13.092;2022-11-21T10:29:36;100648.00;;;5.00
12918;BMP180;6526;54.312;13.092;2022-11-21T10:32:22;100654.00;;;4.90
12918;BMP180;6526;54.312;13.092;2022-11-21T10:34:52;100656.00;;;4.90
12918;BMP180;6526;54.312;13.092;2022-11-21T10:37:53;100651.00;;;5.00
12918;BMP180;6526;54.312;13.092;2022-11-21T10:40:39;100661.00;;;5.20
12918;BMP180;6526;54.312;13.092;2022-11-21T10:46:07;100644.00;;;5.30
12918;BMP180;6526;54.312;13.092;2022-11-21T10:48:34;100647.00;;;5.20
12918;BMP180;6526;54.312;13.092;2022-11-21T10:54:07;100650.00;;;5.40
12918;BMP180;6526;54.312;13.092;2022-11-21T10:56:55;100646.00;;;5.40
12918;BMP180;6526;54.312;13.092;2022-11-21T10:59:28;100647.00;;;5.60
12918;BMP180;6526;54.312;13.092;2022-11-21T11:02:19;100657.00;;;5.70
12918;BMP180;6526;54.312;13.092;2022-11-21T11:04:45;100655.00;;;5.80
12918;BMP180;6526;54.312;13.092;2022-11-21T11:07:25;100653.00;;;5.80
12918;BMP180;6526;54.312;13.092;2022-11-21T11:10:12;100652.00;;;5.80
12918;BMP180;6526;54.312;13.092;2022-11-21T11:12:39;100659.00;;;5.80
12918;BMP180;6526;54.312;13.092;2022-11-21T11:15:26;100651.00;;;5.80
12918;BMP180;6526;54.312;13.092;2022-11-21T11:17:58;100645.00;;;5.70
12918;BMP180;6526;54.312;13.092;2022-11-21T11:20:37;100639.00;;;5.90
12918;BMP180;6526;54.312;13.092;2022-11-21T11:25:48;100655.00;;;6.20
12918;BMP180;6526;54.312;13.092;2022-11-21T11:28:14;100643.00;;;6.10
12918;BMP180;6526;54.312;13.092;2022-11-21T11:30:41;100641.00;;;6.20
12918;BMP180;6526;54.312;13.092;2022-11-21T11:33:28;100653.00;;;6.20
12918;BMP180;6526;54.312;13.092;2022-11-21T11:35:58;100656.00;;;6.20
12918;BMP180;6526;54.312;13.092;2022-11-21T11:38:26;100660.00;;;6.20
12918;BMP180;6526;54.312;13.092;2022-11-21T11:40:54;100655.00;;;6.20
12918;BMP180;6526;54.312;13.092;2022-11-21T11:43:42;100652.00;;;6.10
12918;BMP180;6526;54.312;13.092;2022-11-21T11:46:56;100642.00;;;6.20
12918;BMP180;6526;54.312;13.092;2022-11-21T11:50:02;100655.00;;;6.00
12918;BMP180;6526;54.312;13.092;2022-11-21T11:58:22;100644.00;;;5.90
12918;BMP180;6526;54.312;13.092;2022-11-21T12:01:02;100645.00;;;6.00
12918;BMP180;6526;54.312;13.092;2022-11-21T12:03:42;100654.00;;;6.20
12918;BMP180;6526;54.312;13.092;2022-11-21T12:06:18;100654.00;;;6.10
12918;BMP180;6526;54.312;13.092;2022-11-21T12:09:01;100655.00;;;5.90
12918;BMP180;6526;54.312;13.092;2022-11-21T12:11:42;100651.00;;;5.90
12918;BMP180;6526;54.312;13.092;2022-11-21T12:17:42;100658.00;;;6.20
12918;BMP180;6526;54.312;13.092;2022-11-21T12:21:16;100655.00;;;6.10
12918;BMP180;6526;54.312;13.092;2022-11-21T12:23:29;100658.00;;;5.80
12918;BMP180;6526;54.312;13.092;2022-11-21T12:26:23;100667.00;;;5.80
12918;BMP180;6526;54.312;13.092;2022-11-21T12:44:37;100657.00;;;5.50
12918;BMP180;6526;54.312;13.092;2022-11-21T12:47:46;100656.00;;;5.50
12918;BMP180;6526;54.312;13.092;2022-11-21T12:56:56;100658.00;;;5.40
12918;BMP180;6526;54.312;13.092;2022-11-21T12:59:24;100662.00;;;5.50
12918;BMP180;6526;54.312;13.092;2022-11-21T13:04:49;100675.00;;;5.40
12918;BMP180;6526;54.312;13.092;2022-11-21T13:07:17;100676.00;;;5.40
12918;BMP180;6526;54.312;13.092;2022-11-21T13:09:47;100642.00;;;5.30
12918;BMP180;6526;54.312;13.092;2022-11-21T13:12:41;100676.00;;;5.20
12918;BMP180;6526;54.312;13.092;2022-11-21T13:15:40;100678.00;;;5.20
12918;BMP180;6526;54.312;13.092;2022-11-21T13:18:22;100689.00;;;5.20
12918;BMP180;6526;54.312;13.092;2022-11-21T13:20:51;100681.00;;;5.20
12918;BMP180;6526;54.312;13.092;2022-11-21T13:23:36;100681.00;;;5.20
12918;BMP180;6526;54.312;13.092;2022-11-21T13:29:09;100682.00;;;4.90
12918;BMP180;6526;54.312;13.092;2022-11-21T13:31:35;100688.00;;;4.90
12918;BMP180;6526;54.312;13.092;2022-11-21T13:34:03;100686.00;;;5.00
12918;BMP180;6526;54.312;13.092;2022-11-21T13:47:04;100677.00;;;5.00
12918;BMP180;6526;54.312;13.092;2022-11-21T13:52:26;100689.00;;;4.90
12918;BMP180;6526;54.312;13.092;2022-11-21T13:55:01;100672.00;;;5.00
12918;BMP180;6526;54.312;13.092;2022-11-21T13:57:48;100685.00;;;5.10
12918;BMP180;6526;54.312;13.092;2022-11-21T14:01:00;100677.00;;;5.10
12918;BMP180;6526;54.312;13.092;2022-11-21T14:08:38;100683.00;;;5.00
12918;BMP180;6526;54.312;13.092;2022-11-21T14:11:29;100683.00;;;5.00
12918;BMP180;6526;54.312;13.092;2022-11-21T14:13:58;100686.00;;;5.00
12918;BMP180;6526;54.312;13.092;2022-11-21T14:16:34;100683.00;;;5.00
12918;BMP180;6526;54.312;13.092;2022-11-21T14:19:02;100680.00;;;5.00
12918;BMP180;6526;54.312;13.092;2022-11-21T14:21:30;100680.00;;;5.20
12918;BMP180;6526;54.312;13.092;2022-11-21T14:24:00;100680.00;;;5.20
12918;BMP180;6526;54.312;13.092;2022-11-21T14:26:39;100678.00;;;5.20
12918;BMP180;6526;54.312;13.092;2022-11-21T14:29:27;100675.00;;;5.00
12918;BMP180;6526;54.312;13.092;2022-11-21T14:31:54;100672.00;;;5.10
12918;BMP180;6526;54.312;13.092;2022-11-21T14:34:39;100673.00;;;5.10
12918;BMP180;6526;54.312;13.092;2022-11-21T14:37:06;100675.00;;;5.00
12918;BMP180;6526;54.312;13.092;2022-11-21T14:39:33;100674.00;;;5.10
12918;BMP180;6526;54.312;13.092;2022-11-21T14:42:05;100681.00;;;5.00
12918;BMP180;6526;54.312;13.092;2022-11-21T14:44:36;100665.00;;;5.10
12918;BMP180;6526;54.312;13.092;2022-11-21T14:47:12;100669.00;;;5.10
12918;BMP180;6526;54.312;13.092;2022-11-21T14:49:51;100677.00;;;5.00
12918;BMP180;6526;54.312;13.092;2022-11-21T14:52:21;100667.00;;;5.00
12918;BMP180;6526;54.312;13.092;2022-11-21T14:54:54;100670.00;;;4.90
12918;BMP180;6526;54.312;13.092;2022-11-21T14:59:54;100671.00;;;5.00
12918;BMP180;6526;54.312;13.092;2022-11-21T15:02:26;100665.00;;;4.90
12918;BMP180;6526;54.312;13.092;2022-11-21T15:04:53;100669.00;;;4.90
12918;BMP180;6526;54.312;13.092;2022-11-21T15:07:23;100660.00;;;4.90
12918;BMP180;6526;54.312;13.092;2022-11-21T15:09:50;100664.00;;;4.80
12918;BMP180;6526;54.312;13.092;2022-11-21T15:12:34;100672.00;;;4.80
12918;BMP180;6526;54.312;13.092;2022-11-21T15:15:21;100658.00;;;4.80
12918;BMP180;6526;54.312;13.092;2022-11-21T15:17:54;100661.00;;;5.00
12918;BMP180;6526;54.312;13.092;2022-11-21T15:20:20;100660.00;;;4.90
12918;BMP180;6526;54.312;13.092;2022-11-21T15:22:48;100670.00;;;4.90
12918;BMP180;6526;54.312;13.092;2022-11-21T15:25:20;100650.00;;;4.70
12918;BMP180;6526;54.312;13.092;2022-11-21T15:28:07;100654.00;;;4.70
12918;BMP180;6526;54.312;13.092;2022-11-21T15:30:35;100655.00;;;4.70
12918;BMP180;6526;54.312;13.092;2022-11-21T15:33:16;100652.00;;;4.90
12918;BMP180;6526;54.312;13.092;2022-11-21T15:38:18;100658.00;;;4.80
12918;BMP180;6526;54.312;13.092;2022-11-21T15:41:21;100648.00;;;4.70
12918;BMP180;6526;54.312;13.092;2022-11-21T15:43:49;100649.00;;;4.80
12918;BMP180;6526;54.312;13.092;2022-11-21T15:46:22;100647.00;;;4.80
12918;BMP180;6526;54.312;13.092;2022-11-21T15:48:53;100651.00;;;4.80
12918;BMP180;6526;54.312;13.092;2022-11-21T15:51:24;100643.00;;;4.60
12918;BMP180;6526;54.312;13.092;2022-11-21T15:53:51;100638.00;;;4.70
12918;BMP180;6526;54.312;13.092;2022-11-21T15:56:19;100634.00;;;4.70